Time;durP1;ratioP1;P1;durP2;ratioP2;P2;SDS_P1;SDS_P2;PMS_P1;PMS_P2;Temp;Humidity;BMP_temperature;BMP_pressure;BME280_temperature;BME280_humidity;BME280_pressure;Samples;Min_cycle;Max_cycle;Signal;HPM_P1;HPM_P2
2021/12/29 00:01:16;;;;;;;6.03;3.92;;;;;;;4.68;100.00;99060.88;5016205;28;20052;-88
2021/12/29 00:03:43;;;;;;;6.60;4.53;;;;;;;4.69;100.00;99054.78;5024570;28;20044;-88
2021/12/29 00:06:09;;;;;;;11.52;4.72;;;;;;;4.72;100.00;99062.56;5028306;28;20074;-88
2021/12/29 00:08:36;;;;;;;9.68;5.22;;;;;;;4.78;100.00;99069.41;5032166;28;20058;-87
2021/12/29 00:11:03;;;;;;;9.25;6.07;;;;;;;4.83;100.00;99078.00;5047926;28;20045;-88
2021/12/29 00:13:30;;;;;;;7.90;4.85;;;;;;;4.87;100.00;99078.81;5042589;28;20064;-88
2021/12/29 00:16:00;;;;;;;8.60;4.72;;;;;;;4.87;100.00;99084.00;5029173;28;20083;-88
2021/12/29 00:18:29;;;;;;;8.05;4.72;;;;;;;4.84;100.00;99077.13;5031678;28;20075;-88
2021/12/29 00:20:58;;;;;;;6.53;5.00;;;;;;;4.77;100.00;99086.69;5038666;28;20060;-87
2021/12/29 00:23:25;;;;;;;6.28;5.00;;;;;;;4.68;100.00;99097.16;5028886;28;20139;-87
2021/12/29 00:25:53;;;;;;;15.05;6.45;;;;;;;4.64;100.00;99106.69;5031806;28;20119;-87
2021/12/29 00:28:19;;;;;;;12.02;6.80;;;;;;;4.70;100.00;99118.72;5031367;28;20052;-88
2021/12/29 00:30:47;;;;;;;13.88;8.65;;;;;;;4.74;100.00;99125.59;5011518;28;20056;-88
2021/12/29 00:33:13;;;;;;;14.95;6.45;;;;;;;4.82;100.00;99129.88;5033935;28;20063;-87
2021/12/29 00:35:41;;;;;;;11.25;6.95;;;;;;;4.88;100.00;99127.22;5027276;28;20046;-88
2021/12/29 00:38:10;;;;;;;14.32;6.68;;;;;;;4.92;100.00;99137.53;5013380;28;20516;-87
2021/12/29 00:40:39;;;;;;;7.45;6.63;;;;;;;4.99;100.00;99145.25;5014574;28;20053;-88
2021/12/29 00:43:07;;;;;;;14.52;8.23;;;;;;;5.06;100.00;99157.25;5008940;28;20053;-87
2021/12/29 00:45:36;;;;;;;13.57;7.57;;;;;;;5.07;100.00;99152.09;5007779;28;20044;-88
2021/12/29 00:48:13;;;;;;;11.55;7.13;;;;;;;5.07;100.00;99158.97;5014195;28;20053;-87
2021/12/29 00:50:40;;;;;;;15.20;9.45;;;;;;;5.06;100.00;99165.03;5017490;28;20046;-87
2021/12/29 00:53:08;;;;;;;11.38;8.30;;;;;;;5.04;100.00;99165.06;5015033;28;20053;-87
2021/12/29 00:55:35;;;;;;;14.68;9.20;;;;;;;5.05;100.00;99171.13;4996123;28;20049;-87
2021/12/29 00:58:02;;;;;;;15.68;8.20;;;;;;;5.09;100.00;99159.84;5033675;28;20046;-87
2021/12/29 01:00:29;;;;;;;16.95;8.90;;;;;;;5.15;100.00;99170.16;5029490;28;20155;-87
2021/12/29 01:02:56;;;;;;;13.00;8.38;;;;;;;5.18;100.00;99170.13;5034693;28;20048;-89
2021/12/29 01:05:26;;;;;;;12.85;8.73;;;;;;;5.23;100.00;99189.09;5001335;28;20121;-89
2021/12/29 01:07:53;;;;;;;12.13;8.02;;;;;;;5.23;100.00;99181.31;5031905;28;20044;-88
2021/12/29 01:10:19;;;;;;;11.15;7.75;;;;;;;5.23;100.00;99178.69;4999253;28;20400;-89
2021/12/29 01:12:53;;;;;;;13.95;8.98;;;;;;;5.25;100.00;99187.34;5013075;28;20049;-88
2021/12/29 01:15:27;;;;;;;13.98;10.48;;;;;;;5.27;100.00;99190.75;5018052;28;20051;-88
2021/12/29 01:17:56;;;;;;;12.50;9.35;;;;;;;5.29;100.00;99199.41;5007427;28;20073;-89
2021/12/29 01:20:24;;;;;;;16.60;8.90;;;;;;;5.32;100.00;99201.09;5007806;28;20517;-87
2021/12/29 01:22:51;;;;;;;13.32;8.68;;;;;;;5.35;100.00;99198.47;5002134;28;20066;-89
2021/12/29 01:25:19;;;;;;;15.82;8.80;;;;;;;5.37;100.00;99209.69;5012528;28;20057;-89
2021/12/29 01:27:46;;;;;;;13.57;9.85;;;;;;;5.39;100.00;99204.50;5016671;28;20471;-89
2021/12/29 01:30:13;;;;;;;13.88;10.25;;;;;;;5.39;100.00;99207.94;5012338;28;20038;-88
2021/12/29 01:32:40;;;;;;;15.27;9.15;;;;;;;5.40;100.00;99203.63;5009878;28;20187;-89
2021/12/29 01:35:09;;;;;;;14.07;9.43;;;;;;;5.39;100.00;99218.31;5035450;28;20068;-88
2021/12/29 01:37:36;;;;;;;14.98;9.73;;;;;;;5.40;100.00;99222.63;5027021;28;20059;-89
2021/12/29 01:40:12;;;;;;;11.95;8.80;;;;;;;5.39;100.00;99218.31;5015414;28;20072;-89
2021/12/29 01:42:39;;;;;;;13.77;8.65;;;;;;;5.41;100.00;99233.84;5042462;28;20720;-89
2021/12/29 01:45:07;;;;;;;14.35;8.95;;;;;;;5.38;100.00;99226.13;5047300;28;20060;-88
2021/12/29 01:47:34;;;;;;;12.05;9.07;;;;;;;5.35;100.00;99226.16;5033458;28;20068;-89
2021/12/29 01:50:01;;;;;;;16.95;10.80;;;;;;;5.34;100.00;99229.63;5029819;28;20045;-89
2021/12/29 01:52:35;;;;;;;13.68;9.88;;;;;;;5.33;100.00;99240.88;5028372;28;20055;-88
2021/12/29 01:55:02;;;;;;;14.27;10.45;;;;;;;5.32;100.00;99236.56;5028478;28;20053;-89
2021/12/29 01:57:28;;;;;;;10.73;9.02;;;;;;;5.30;100.00;99233.97;5044631;28;20049;-89
2021/12/29 01:59:55;;;;;;;16.98;10.23;;;;;;;5.30;100.00;99239.16;5029295;28;20067;-89
2021/12/29 02:02:22;;;;;;;13.30;9.00;;;;;;;5.28;100.00;99236.59;5011969;28;20412;-89
2021/12/29 02:04:48;;;;;;;16.30;10.18;;;;;;;5.29;100.00;99240.91;5018722;28;20581;-89
2021/12/29 02:07:15;;;;;;;19.05;10.95;;;;;;;5.29;100.00;99240.91;5029160;28;20053;-87
2021/12/29 02:09:42;;;;;;;13.25;9.38;;;;;;;5.30;100.00;99249.53;5030456;28;20391;-87
2021/12/29 02:12:10;;;;;;;13.45;9.65;;;;;;;5.30;100.00;99250.41;5033008;28;20053;-89
2021/12/29 02:14:37;;;;;;;13.50;9.20;;;;;;;5.32;100.00;99265.97;5030884;28;20380;-86
2021/12/29 02:17:04;;;;;;;11.65;8.25;;;;;;;5.32;100.00;99255.59;5030622;28;20106;-88
2021/12/29 02:19:31;;;;;;;13.07;9.65;;;;;;;5.30;100.00;99270.31;5011549;28;20037;-87
2021/12/29 02:22:04;;;;;;;18.25;9.60;;;;;;;5.24;100.00;99279.03;5030260;28;20136;-86
2021/12/29 02:24:38;;;;;;;15.90;9.77;;;;;;;5.17;100.00;99284.28;5028664;28;20050;-86
2021/12/29 02:27:07;;;;;;;12.70;10.18;;;;;;;5.14;100.00;99295.53;5029779;28;20040;-85
2021/12/29 02:29:34;;;;;;;10.18;7.38;;;;;;;5.15;100.00;99299.88;5015530;28;20047;-87
2021/12/29 02:32:03;;;;;;;13.77;10.05;;;;;;;5.17;100.00;99297.25;5027176;28;20052;-87
2021/12/29 02:34:30;;;;;;;14.32;8.90;;;;;;;5.20;100.00;99302.41;5043689;28;20047;-87
2021/12/29 02:36:58;;;;;;;18.05;11.18;;;;;;;5.23;100.00;99311.03;5040848;28;20064;-87
2021/12/29 02:39:25;;;;;;;15.43;10.57;;;;;;;5.25;100.00;99300.63;5044503;28;20045;-87
2021/12/29 02:41:55;;;;;;;17.60;9.45;;;;;;;5.28;100.00;99316.19;5044724;28;20606;-88
2021/12/29 02:44:29;;;;;;;16.92;11.02;;;;;;;5.32;100.00;99324.78;5026004;28;20137;-89
2021/12/29 02:46:58;;;;;;;14.40;9.73;;;;;;;5.33;100.00;99322.16;5027039;28;20047;-87
2021/12/29 02:49:26;;;;;;;16.88;10.70;;;;;;;5.37;100.00;99333.38;5028307;28;20166;-87
2021/12/29 02:51:53;;;;;;;17.52;10.52;;;;;;;5.37;100.00;99334.25;5048825;28;20053;-87
2021/12/29 02:54:20;;;;;;;18.52;11.80;;;;;;;5.40;100.00;99335.97;5026953;28;21163;-87
2021/12/29 02:56:49;;;;;;;16.55;11.70;;;;;;;5.41;100.00;99340.25;5027544;28;20110;-87
2021/12/29 02:59:17;;;;;;;18.63;11.88;;;;;;;5.39;100.00;99337.69;5028270;28;20049;-87
2021/12/29 03:01:43;;;;;;;24.33;12.98;;;;;;;5.40;100.00;99339.41;5025002;28;20137;-87
2021/12/29 03:04:11;;;;;;;12.90;9.13;;;;;;;5.36;100.00;99339.44;5012028;28;20056;-88
2021/12/29 03:06:38;;;;;;;17.42;10.43;;;;;;;5.36;100.00;99340.31;5012409;28;20048;-86
2021/12/29 03:09:08;;;;;;;13.05;8.20;;;;;;;5.35;100.00;99342.94;5011717;28;20049;-89
2021/12/29 03:11:36;;;;;;;17.63;10.40;;;;;;;5.34;100.00;99334.25;5028448;28;20037;-89
2021/12/29 03:14:03;;;;;;;20.00;11.75;;;;;;;5.33;100.00;99340.31;5039572;28;20075;-87
2021/12/29 03:16:31;;;;;;;16.08;11.27;;;;;;;5.33;100.00;99349.84;5025787;28;20187;-87
2021/12/29 03:18:58;;;;;;;21.20;13.10;;;;;;;5.32;100.00;99348.13;5041338;28;20891;-86
2021/12/29 03:21:24;;;;;;;20.88;13.85;;;;;;;5.36;100.00;99352.41;5027438;28;20045;-89
2021/12/29 03:23:51;;;;;;;22.45;12.55;;;;;;;5.41;100.00;99348.94;5028776;28;20055;-89
2021/12/29 03:26:18;;;;;;;17.30;11.15;;;;;;;5.45;100.00;99348.03;5024382;28;20048;-87
2021/12/29 03:28:46;;;;;;;17.65;11.05;;;;;;;5.47;100.00;99354.06;5028167;28;20146;-86
2021/12/29 03:31:14;;;;;;;21.83;11.85;;;;;;;5.49;100.00;99354.06;5009103;28;20060;-89
2021/12/29 03:33:43;;;;;;;23.90;13.75;;;;;;;5.51;100.00;99354.88;5017707;28;20053;-89
2021/12/29 03:36:10;;;;;;;16.83;12.15;;;;;;;5.53;100.00;99355.72;5042624;28;20163;-89
2021/12/29 03:38:39;;;;;;;22.08;12.90;;;;;;;5.55;100.00;99353.13;5032662;28;20112;-88
2021/12/29 03:41:10;;;;;;;20.63;14.00;;;;;;;5.54;100.00;99361.78;5042274;28;20045;-88
2021/12/29 03:43:38;;;;;;;20.98;13.40;;;;;;;5.54;100.00;99369.56;5025445;28;20044;-89
2021/12/29 03:46:07;;;;;;;20.02;13.02;;;;;;;5.56;100.00;99373.88;5030430;28;20438;-88
2021/12/29 03:48:35;;;;;;;23.00;13.85;;;;;;;5.56;100.00;99373.88;5020199;28;20049;-88
2021/12/29 03:51:03;;;;;;;23.88;15.20;;;;;;;5.56;100.00;99386.84;5031020;28;20037;-88
2021/12/29 03:53:30;;;;;;;20.40;13.32;;;;;;;5.56;100.00;99384.25;5046309;28;20049;-88
2021/12/29 03:55:57;;;;;;;24.73;13.35;;;;;;;5.57;100.00;99385.13;5042378;28;20081;-88
2021/12/29 03:58:27;;;;;;;25.85;13.50;;;;;;;5.58;100.00;99392.03;5029803;28;20045;-88
2021/12/29 04:01:06;;;;;;;19.25;11.07;;;;;;;5.58;100.00;99395.50;5014447;28;20072;-88
2021/12/29 04:03:33;;;;;;;21.40;12.75;;;;;;;5.61;100.00;99399.81;5016145;28;20048;-88
2021/12/29 04:05:59;;;;;;;18.50;11.35;;;;;;;5.62;100.00;99401.53;5014102;28;20048;-88
2021/12/29 04:08:26;;;;;;;13.38;9.88;;;;;;;5.62;100.00;99404.13;5025289;28;20037;-89
2021/12/29 04:10:53;;;;;;;12.73;8.05;;;;;;;5.65;100.00;99404.09;5042775;28;20045;-88
2021/12/29 04:13:19;;;;;;;14.27;8.68;;;;;;;5.67;100.00;99401.47;5044165;28;20057;-88
2021/12/29 04:15:48;;;;;;;16.27;8.82;;;;;;;5.69;100.00;99400.59;5011702;28;20508;-88
2021/12/29 04:18:26;;;;;;;13.10;7.63;;;;;;;5.73;100.00;99404.88;5040323;28;20041;-88
2021/12/29 04:20:55;;;;;;;16.80;9.23;;;;;;;5.74;100.00;99406.59;5042263;28;20045;-88
2021/12/29 04:23:41;;;;;;;13.10;8.50;;;;;;;5.73;100.00;99417.00;5026866;28;20416;-88
2021/12/29 04:26:08;;;;;;;15.13;8.60;;;;;;;5.72;100.00;99426.53;5029870;28;20052;-88
2021/12/29 04:28:36;;;;;;;15.00;8.00;;;;;;;5.72;100.00;99433.44;5016207;28;20504;-88
2021/12/29 04:31:07;;;;;;;14.10;9.18;;;;;;;5.71;100.00;99424.81;5011086;28;20057;-88
2021/12/29 04:33:37;;;;;;;16.00;9.85;;;;;;;5.70;100.00;99433.47;5052300;28;20063;-88
2021/12/29 04:36:07;;;;;;;14.73;7.93;;;;;;;5.71;100.00;99447.28;5034349;28;20048;-88
2021/12/29 04:38:34;;;;;;;13.65;8.10;;;;;;;5.67;100.00;99449.09;5037087;28;20048;-88
2021/12/29 04:41:02;;;;;;;16.48;9.02;;;;;;;5.66;100.00;99449.06;5004061;28;20095;-88
2021/12/29 04:43:28;;;;;;;14.13;8.32;;;;;;;5.65;100.00;99452.56;5052780;28;20337;-88
2021/12/29 04:45:55;;;;;;;20.10;11.50;;;;;;;5.65;100.00;99457.75;5038482;28;20041;-88
2021/12/29 04:48:24;;;;;;;18.15;9.88;;;;;;;5.65;100.00;99465.53;5035277;28;20044;-87
2021/12/29 04:50:52;;;;;;;17.70;9.30;;;;;;;5.66;100.00;99468.13;5005939;28;20076;-88
2021/12/29 04:53:23;;;;;;;17.05;9.35;;;;;;;5.65;100.00;99470.75;5000381;28;20048;-89
2021/12/29 04:55:50;;;;;;;32.90;16.30;;;;;;;5.65;100.00;99475.94;5036889;28;20055;-88
2021/12/29 04:58:20;;;;;;;13.85;8.68;;;;;;;5.64;100.00;99475.06;5004353;28;20503;-88
2021/12/29 05:00:48;;;;;;;15.40;9.23;;;;;;;5.65;100.00;99489.75;5031319;28;20098;-88
2021/12/29 05:03:15;;;;;;;13.40;8.18;;;;;;;5.63;100.00;99491.50;5002517;28;20056;-88
2021/12/29 05:05:54;;;;;;;14.05;8.23;;;;;;;5.63;100.00;99496.69;5016337;28;20136;-88
2021/12/29 05:08:25;;;;;;;13.40;8.85;;;;;;;5.62;100.00;99500.19;5018623;28;20584;-88
2021/12/29 05:10:58;;;;;;;13.68;8.25;;;;;;;5.61;100.00;99504.50;5017669;28;20056;-88
2021/12/29 05:13:26;;;;;;;14.63;8.90;;;;;;;5.63;100.00;99509.66;5019076;28;20059;-88
2021/12/29 05:15:55;;;;;;;16.85;9.80;;;;;;;5.62;100.00;99501.03;5019429;28;20143;-88
2021/12/29 05:18:23;;;;;;;16.48;8.85;;;;;;;5.62;100.00;99515.75;5028969;28;20246;-88
2021/12/29 05:20:50;;;;;;;16.40;9.63;;;;;;;5.62;100.00;99518.34;5028274;28;20055;-88
2021/12/29 05:23:17;;;;;;;15.32;9.07;;;;;;;5.62;100.00;99513.16;5009909;28;20053;-88
2021/12/29 05:25:43;;;;;;;17.92;9.88;;;;;;;5.61;100.00;99522.66;5013661;28;20053;-87
2021/12/29 05:28:10;;;;;;;17.95;10.93;;;;;;;5.62;100.00;99523.56;5015197;28;20094;-88
2021/12/29 05:30:37;;;;;;;14.43;9.90;;;;;;;5.61;100.00;99530.47;5027047;28;20051;-88
2021/12/29 05:33:05;;;;;;;15.25;8.40;;;;;;;5.61;100.00;99532.19;5004918;28;20595;-88
2021/12/29 05:35:32;;;;;;;18.10;9.95;;;;;;;5.61;100.00;99532.19;5005010;28;20049;-88
2021/12/29 05:37:59;;;;;;;15.80;9.15;;;;;;;5.60;100.00;99525.28;5031534;28;20500;-88
2021/12/29 05:40:27;;;;;;;19.08;10.27;;;;;;;5.60;100.00;99535.66;5029178;28;20151;-88
2021/12/29 05:42:55;;;;;;;13.73;8.65;;;;;;;5.59;100.00;99536.53;5009414;28;20057;-88
2021/12/29 05:45:21;;;;;;;14.13;9.52;;;;;;;5.57;100.00;99538.28;5023991;28;20057;-88
2021/12/29 05:47:48;;;;;;;14.68;9.02;;;;;;;5.58;100.00;99545.19;5022535;28;20053;-88
2021/12/29 05:50:20;;;;;;;13.35;9.05;;;;;;;5.58;100.00;99547.78;5026177;28;20068;-88
2021/12/29 05:52:48;;;;;;;16.13;9.70;;;;;;;5.56;100.00;99550.38;5044651;28;20645;-88
2021/12/29 05:55:16;;;;;;;16.63;9.05;;;;;;;5.56;100.00;99550.38;5025426;28;20525;-88
2021/12/29 05:57:43;;;;;;;17.83;10.48;;;;;;;5.55;100.00;99553.84;5029319;28;20045;-88
2021/12/29 06:00:15;;;;;;;14.98;8.88;;;;;;;5.54;100.00;99551.28;5023177;28;20664;-88
2021/12/29 06:02:42;;;;;;;15.88;9.10;;;;;;;5.53;100.00;99557.31;5026879;28;20053;-88
2021/12/29 06:05:10;;;;;;;15.50;8.23;;;;;;;5.53;100.00;99563.41;5040983;28;20044;-87
2021/12/29 06:07:38;;;;;;;16.58;9.65;;;;;;;5.53;100.00;99557.31;5013108;28;20052;-86
2021/12/29 06:10:07;;;;;;;14.15;8.15;;;;;;;5.53;100.00;99559.91;5010024;28;20049;-88
2021/12/29 06:12:34;;;;;;;15.85;9.38;;;;;;;5.53;100.00;99565.13;5024079;28;20128;-88
2021/12/29 06:15:00;;;;;;;14.35;8.52;;;;;;;5.53;100.00;99575.50;5029326;28;20103;-87
2021/12/29 06:17:27;;;;;;;16.58;8.15;;;;;;;5.53;100.00;99575.50;5023877;28;20045;-88
2021/12/29 06:19:53;;;;;;;15.82;8.40;;;;;;;5.52;100.00;99582.44;5012176;28;20048;-88
2021/12/29 06:22:20;;;;;;;14.07;7.63;;;;;;;5.52;100.00;99582.44;5012583;28;20052;-88
2021/12/29 06:24:51;;;;;;;13.88;7.88;;;;;;;5.53;100.00;99589.34;5024477;28;20076;-88
2021/12/29 06:27:21;;;;;;;12.18;6.25;;;;;;;5.54;100.00;99598.00;5045408;28;20053;-88
2021/12/29 06:29:49;;;;;;;12.88;6.68;;;;;;;5.53;100.00;99602.34;5026891;28;20567;-88
2021/12/29 06:32:16;;;;;;;9.52;6.03;;;;;;;5.52;100.00;99603.22;5026365;28;20057;-88
2021/12/29 06:34:43;;;;;;;13.90;6.60;;;;;;;5.52;100.00;99610.16;5027938;28;20055;-88
2021/12/29 06:37:12;;;;;;;16.50;7.25;;;;;;;5.51;100.00;99622.25;5008283;28;20519;-88
2021/12/29 06:39:44;;;;;;;10.98;6.47;;;;;;;5.51;100.00;99619.63;5029722;28;20051;-88
2021/12/29 06:42:11;;;;;;;10.40;6.40;;;;;;;5.50;100.00;99622.25;5041161;28;20511;-88
2021/12/29 06:44:39;;;;;;;11.55;6.15;;;;;;;5.50;100.00;99630.03;5010095;28;20049;-88
2021/12/29 06:47:06;;;;;;;15.95;6.60;;;;;;;5.51;100.00;99629.19;5043756;28;20659;-88
2021/12/29 06:49:34;;;;;;;12.75;6.00;;;;;;;5.50;100.00;99633.53;5017846;28;20053;-88
2021/12/29 06:52:01;;;;;;;12.50;5.90;;;;;;;5.51;100.00;99643.00;5027336;28;20045;-88
2021/12/29 06:54:29;;;;;;;10.98;6.10;;;;;;;5.52;100.00;99654.28;5038035;28;21433;-88
2021/12/29 06:56:56;;;;;;;14.13;5.88;;;;;;;5.51;100.00;99661.19;5042613;28;20079;-88
2021/12/29 06:59:28;;;;;;;14.55;6.28;;;;;;;5.52;100.00;99665.50;5025039;28;20467;-88
2021/12/29 07:01:55;;;;;;;13.60;7.18;;;;;;;5.52;100.00;99670.69;5013294;28;20041;-88
2021/12/29 07:04:23;;;;;;;14.52;7.30;;;;;;;5.52;100.00;99677.63;5027949;28;20749;-88
2021/12/29 07:06:51;;;;;;;13.70;6.38;;;;;;;5.53;100.00;99681.94;5024700;28;20041;-88
2021/12/29 07:09:19;;;;;;;17.58;7.47;;;;;;;5.55;100.00;99688.84;5028731;28;20104;-88
2021/12/29 07:11:46;;;;;;;14.10;7.57;;;;;;;5.57;100.00;99694.91;5004472;28;22038;-88
2021/12/29 07:14:13;;;;;;;11.32;6.60;;;;;;;5.57;100.00;99694.91;5032193;28;20065;-88
2021/12/29 07:16:43;;;;;;;13.30;6.72;;;;;;;5.57;100.00;99705.28;5026826;28;20427;-88
2021/12/29 07:19:10;;;;;;;15.10;7.15;;;;;;;5.57;100.00;99707.88;5022809;28;20053;-88
2021/12/29 07:21:37;;;;;;;14.57;6.78;;;;;;;5.58;100.00;99701.84;5009558;28;21409;-88
2021/12/29 07:24:04;;;;;;;12.50;5.80;;;;;;;5.59;100.00;99716.53;5006913;28;20053;-88
2021/12/29 07:26:30;;;;;;;13.98;7.07;;;;;;;5.60;100.00;99714.81;5027359;28;20045;-87
2021/12/29 07:28:57;;;;;;;13.27;6.50;;;;;;;5.60;100.00;99718.25;5028448;28;20041;-87
2021/12/29 07:31:25;;;;;;;14.95;5.57;;;;;;;5.60;100.00;99718.25;5017313;28;20036;-88
2021/12/29 07:33:52;;;;;;;11.95;6.72;;;;;;;5.63;100.00;99727.75;5031841;28;20142;-88
2021/12/29 07:36:19;;;;;;;16.60;6.65;;;;;;;5.62;100.00;99720.88;5042172;28;20395;-88
2021/12/29 07:38:45;;;;;;;14.30;6.38;;;;;;;5.65;100.00;99733.81;5045934;28;20125;-88
2021/12/29 07:41:13;;;;;;;14.40;6.70;;;;;;;5.66;100.00;99735.56;5045664;28;20395;-88
2021/12/29 07:43:39;;;;;;;16.13;6.50;;;;;;;5.67;100.00;99736.41;5023415;28;20048;-87
2021/12/29 07:46:07;;;;;;;12.30;6.80;;;;;;;5.68;100.00;99735.56;5027557;28;20045;-88
2021/12/29 07:48:35;;;;;;;18.42;8.68;;;;;;;5.69;100.00;99734.69;5010331;28;20188;-88
2021/12/29 07:51:06;;;;;;;16.48;7.03;;;;;;;5.72;100.00;99751.13;5029445;28;20541;-87
2021/12/29 07:53:34;;;;;;;11.68;6.75;;;;;;;5.74;100.00;99753.72;5033336;28;20060;-87
2021/12/29 07:56:01;;;;;;;17.00;6.72;;;;;;;5.77;100.00;99758.88;5024835;28;20090;-88
2021/12/29 07:58:28;;;;;;;12.65;6.70;;;;;;;5.78;100.00;99765.81;5034396;28;20064;-89
2021/12/29 08:00:54;;;;;;;11.80;5.35;;;;;;;5.80;100.00;99767.53;5029947;28;20049;-88
2021/12/29 08:03:22;;;;;;;10.93;5.10;;;;;;;5.85;100.00;99777.03;5034370;28;20060;-88
2021/12/29 08:05:49;;;;;;;11.45;5.22;;;;;;;5.87;100.00;99786.53;5020001;28;20064;-88
2021/12/29 08:08:15;;;;;;;9.23;6.13;;;;;;;5.91;100.00;99779.63;5051035;28;20136;-88
2021/12/29 08:10:42;;;;;;;7.03;4.80;;;;;;;5.93;100.00;99767.47;5038213;28;20052;-88
2021/12/29 08:13:09;;;;;;;8.55;4.70;;;;;;;5.95;100.00;99765.75;5043922;28;20053;-88
2021/12/29 08:15:37;;;;;;;7.70;4.53;;;;;;;5.96;100.00;99768.31;5015802;28;20049;-88
2021/12/29 08:18:06;;;;;;;7.75;4.50;;;;;;;5.99;100.00;99771.81;5032114;28;20128;-88
2021/12/29 08:20:35;;;;;;;6.20;4.93;;;;;;;5.99;100.00;99771.81;5015062;28;20036;-88
2021/12/29 08:23:04;;;;;;;8.77;4.38;;;;;;;6.00;100.00;99784.81;5017749;28;20491;-87
2021/12/29 08:25:31;;;;;;;8.43;5.55;;;;;;;6.02;100.00;99783.03;5030478;28;20055;-87
2021/12/29 08:27:59;;;;;;;11.43;5.75;;;;;;;6.01;100.00;99786.53;5017207;28;20045;-88
2021/12/29 08:30:26;;;;;;;9.20;5.28;;;;;;;6.03;100.00;99787.38;5030854;28;20040;-88
2021/12/29 08:32:53;;;;;;;8.20;4.57;;;;;;;6.05;100.00;99788.25;5018902;28;20227;-88
2021/12/29 08:35:20;;;;;;;8.10;5.65;;;;;;;6.07;100.00;99790.84;5051620;28;20044;-88
2021/12/29 08:37:47;;;;;;;9.90;5.85;;;;;;;6.07;100.00;99794.28;5011195;28;20092;-87
2021/12/29 08:40:15;;;;;;;12.30;5.55;;;;;;;6.07;100.00;99794.28;5033958;28;20179;-86
2021/12/29 08:42:42;;;;;;;8.73;5.80;;;;;;;6.09;100.00;99804.69;5017992;28;20051;-87
2021/12/29 08:45:15;;;;;;;9.55;5.72;;;;;;;6.07;100.00;99791.69;5015546;28;20143;-87
2021/12/29 08:47:43;;;;;;;11.03;6.30;;;;;;;6.09;100.00;99799.50;5036675;28;20056;-87
2021/12/29 08:50:15;;;;;;;10.85;5.45;;;;;;;6.09;100.00;99794.31;5030753;28;20143;-87
2021/12/29 08:52:42;;;;;;;10.57;5.63;;;;;;;6.11;100.00;99810.72;5039886;28;20045;-87
2021/12/29 08:55:12;;;;;;;12.07;7.05;;;;;;;6.13;100.00;99811.59;5018157;28;20098;-86
2021/12/29 08:57:39;;;;;;;12.68;6.25;;;;;;;6.14;100.00;99802.94;5022256;28;20136;-86
2021/12/29 09:00:12;;;;;;;9.50;5.35;;;;;;;6.15;100.00;99804.63;5039513;28;20040;-87
2021/12/29 09:02:39;;;;;;;9.65;5.30;;;;;;;6.17;100.00;99805.50;5031422;28;20045;-87
2021/12/29 09:05:07;;;;;;;8.48;5.47;;;;;;;6.18;100.00;99812.44;5054109;28;20059;-87
2021/12/29 09:07:34;;;;;;;12.43;6.80;;;;;;;6.22;100.00;99811.56;5027794;28;20084;-87
2021/12/29 09:10:01;;;;;;;11.30;6.60;;;;;;;6.25;100.00;99813.28;5025768;28;20139;-87
2021/12/29 09:12:28;;;;;;;11.73;6.55;;;;;;;6.27;100.00;99817.59;5016257;28;20884;-87
2021/12/29 09:14:54;;;;;;;16.73;7.88;;;;;;;6.30;100.00;99821.91;5024414;28;20133;-87
2021/12/29 09:17:21;;;;;;;10.73;7.10;;;;;;;6.34;100.00;99827.97;5050371;28;20059;-87
2021/12/29 09:19:48;;;;;;;11.45;7.55;;;;;;;6.33;100.00;99824.50;5012179;28;20041;-87
2021/12/29 09:22:15;;;;;;;13.02;7.18;;;;;;;6.37;100.00;99830.53;5033537;28;20068;-87
2021/12/29 09:24:43;;;;;;;13.98;6.57;;;;;;;6.37;100.00;99831.41;5015978;28;20055;-88
2021/12/29 09:27:11;;;;;;;12.18;6.93;;;;;;;6.39;100.00;99837.47;5024203;28;20049;-90
2021/12/29 09:29:37;;;;;;;12.23;7.28;;;;;;;6.39;100.00;99834.88;5027280;28;20044;-89
2021/12/29 09:32:05;;;;;;;13.52;8.18;;;;;;;6.42;100.00;99836.59;5044077;28;20126;-88
2021/12/29 09:34:33;;;;;;;16.23;7.78;;;;;;;6.42;100.00;99841.78;5040724;28;20115;-88
2021/12/29 09:37:02;;;;;;;11.57;7.63;;;;;;;6.46;100.00;99851.28;5033581;28;20066;-89
2021/12/29 09:39:29;;;;;;;12.07;7.85;;;;;;;6.52;100.00;99851.25;5051912;28;20045;-89
2021/12/29 09:41:56;;;;;;;12.90;7.45;;;;;;;6.55;100.00;99850.38;5052303;28;20052;-89
2021/12/29 09:44:23;;;;;;;19.05;9.25;;;;;;;6.58;100.00;99852.97;5030950;28;20553;-88
2021/12/29 09:46:51;;;;;;;14.88;7.65;;;;;;;6.64;100.00;99855.53;5033534;28;20037;-89
2021/12/29 09:49:18;;;;;;;13.55;7.50;;;;;;;6.62;100.00;99858.16;5031058;28;20054;-88
2021/12/29 09:51:45;;;;;;;13.68;7.22;;;;;;;6.65;100.00;99869.38;5033464;28;20049;-88
2021/12/29 09:54:12;;;;;;;13.07;7.55;;;;;;;6.62;100.00;99859.88;5035168;28;20463;-88
2021/12/29 09:56:39;;;;;;;12.90;8.23;;;;;;;6.64;100.00;99863.34;5011471;28;20105;-88
2021/12/29 09:59:05;;;;;;;14.75;7.70;;;;;;;6.65;100.00;99865.06;5035342;28;20523;-89
2021/12/29 10:01:33;;;;;;;13.05;8.10;;;;;;;6.67;100.00;99862.44;5025355;28;21167;-88
2021/12/29 10:03:59;;;;;;;14.27;7.35;;;;;;;6.70;100.00;99854.63;5047559;28;20045;-88
2021/12/29 10:06:27;;;;;;;10.95;6.20;;;;;;;6.73;100.00;99867.63;5032074;28;20039;-88
2021/12/29 10:08:53;;;;;;;10.85;6.82;;;;;;;6.71;100.00;99866.75;5050331;28;20040;-89
2021/12/29 10:11:29;;;;;;;10.20;6.90;;;;;;;6.72;100.00;99874.56;5023985;28;20052;-89
2021/12/29 10:13:57;;;;;;;10.75;6.40;;;;;;;6.67;100.00;99876.31;5015078;28;20105;-89
2021/12/29 10:16:28;;;;;;;8.65;6.72;;;;;;;6.68;100.00;99872.00;5025881;28;20124;-88
2021/12/29 10:19:06;;;;;;;9.80;6.53;;;;;;;6.69;100.00;99878.91;5011849;28;20087;-89
2021/12/29 10:21:35;;;;;;;9.00;6.95;;;;;;;6.68;100.00;99888.44;5031114;28;20045;-89
2021/12/29 10:24:03;;;;;;;9.73;5.97;;;;;;;6.72;100.00;99881.50;5051364;28;20049;-88
2021/12/29 10:26:37;;;;;;;10.27;7.00;;;;;;;6.69;100.00;99881.50;5030307;28;20118;-87
2021/12/29 10:29:09;;;;;;;9.63;6.50;;;;;;;6.72;100.00;99897.09;5034144;28;20120;-87
2021/12/29 10:31:47;;;;;;;9.68;6.85;;;;;;;6.71;100.00;99898.81;5045924;28;20614;-88
2021/12/29 10:34:20;;;;;;;8.98;6.75;;;;;;;6.70;100.00;99901.44;5019540;28;20049;-89
2021/12/29 10:36:53;;;;;;;9.45;6.20;;;;;;;6.71;100.00;99909.22;5015467;28;21602;-89
2021/12/29 10:39:26;;;;;;;8.85;5.35;;;;;;;6.72;100.00;99890.16;5034738;28;20052;-89
2021/12/29 10:42:13;;;;;;;7.03;5.18;;;;;;;6.72;100.00;99902.31;5049500;28;20194;-88
2021/12/29 10:44:53;;;;;;;8.57;6.10;;;;;;;6.74;100.00;99901.44;5026850;28;20063;-89
2021/12/29 10:47:25;;;;;;;9.80;5.63;;;;;;;6.76;100.00;99912.66;5034200;28;20056;-88
2021/12/29 10:50:03;;;;;;;6.47;4.97;;;;;;;6.84;100.00;99917.84;5028780;28;20058;-88
2021/12/29 10:52:47;;;;;;;8.35;5.72;;;;;;;6.84;100.00;99930.00;5033377;28;20053;-88
2021/12/29 10:55:31;;;;;;;6.60;4.60;;;;;;;6.83;100.00;99923.94;5010772;28;20151;-88
2021/12/29 10:58:06;;;;;;;;;;;;;;;6.87;100.00;99925.66;5023603;28;20443;-88
2021/12/29 11:00:36;;;;;;;7.63;4.72;;;;;;;6.91;100.00;99927.34;5014467;28;19971;-88
2021/12/29 11:03:16;;;;;;;9.45;5.32;;;;;;;6.95;100.00;99925.59;5031807;28;20044;-88
2021/12/29 11:05:48;;;;;;;6.00;5.13;;;;;;;6.97;100.00;99938.59;5016571;28;20232;-88
2021/12/29 11:08:17;;;;;;;7.40;5.10;;;;;;;6.95;100.00;99939.47;5016143;28;20424;-88
2021/12/29 11:10:46;;;;;;;6.70;4.32;;;;;;;6.98;100.00;99937.72;5031605;28;20053;-87
2021/12/29 11:13:24;;;;;;;7.47;6.05;;;;;;;7.03;100.00;99918.59;5047329;28;20044;-87
2021/12/29 11:15:54;;;;;;;9.27;6.07;;;;;;;7.00;100.00;99917.75;5026100;28;20044;-88
2021/12/29 11:18:20;;;;;;;6.03;4.88;;;;;;;6.99;100.00;99923.81;5042627;28;20048;-89
2021/12/29 11:20:54;;;;;;;8.35;5.18;;;;;;;6.97;100.00;99923.84;5044322;28;20512;-88
2021/12/29 11:23:22;;;;;;;;;;;;;;;6.97;100.00;99922.97;5029780;28;20133;-88
2021/12/29 11:25:51;;;;;;;6.15;5.13;;;;;;;6.99;100.00;99919.50;5016410;28;19929;-88
2021/12/29 11:28:30;;;;;;;6.03;4.38;;;;;;;6.98;100.00;99916.91;5031524;28;20048;-88
2021/12/29 11:31:01;;;;;;;8.27;4.82;;;;;;;7.00;100.00;99915.16;5018934;28;20127;-87
2021/12/29 11:33:33;;;;;;;17.92;10.13;;;;;;;7.00;100.00;99909.94;5017564;28;20049;-88